sensor_id;sensor_type;location;lat;lon;timestamp;pressure;altitude;pressure_sealevel;temperature;humidity
23473;BME280;11909;52.516;13.564;2023-02-11T00:01:08;102298.22;;;2.22;82.13
23473;BME280;11909;52.516;13.564;2023-02-11T00:03:36;102302.97;;;2.20;82.41
23473;BME280;11909;52.516;13.564;2023-02-11T00:06:06;102291.75;;;2.23;82.25
23473;BME280;11909;52.516;13.564;2023-02-11T00:08:35;102297.84;;;2.25;82.20
23473;BME280;11909;52.516;13.564;2023-02-11T00:11:03;102290.34;;;2.12;82.64
23473;BME280;11909;52.516;13.564;2023-02-11T00:13:32;102297.47;;;2.13;82.57
23473;BME280;11909;52.516;13.564;2023-02-11T00:16:05;102305.38;;;2.15;82.94
23473;BME280;11909;52.516;13.564;2023-02-11T00:18:33;102310.63;;;2.17;82.83
23473;BME280;11909;52.516;13.564;2023-02-11T00:21:05;102328.72;;;2.16;82.94
23473;BME280;11909;52.516;13.564;2023-02-11T00:23:34;102331.44;;;2.16;83.21
23473;BME280;11909;52.516;13.564;2023-02-11T00:26:02;102328.28;;;2.27;82.35
23473;BME280;11909;52.516;13.564;2023-02-11T00:28:31;102324.94;;;2.25;82.71
23473;BME280;11909;52.516;13.564;2023-02-11T00:30:59;102313.97;;;2.19;83.07
23473;BME280;11909;52.516;13.564;2023-02-11T00:33:28;102297.34;;;2.22;83.12
23473;BME280;11909;52.516;13.564;2023-02-11T00:35:55;102289.44;;;2.20;83.06
23473;BME280;11909;52.516;13.564;2023-02-11T00:38:23;102284.28;;;2.25;82.67
23473;BME280;11909;52.516;13.564;2023-02-11T00:40:51;102295.31;;;2.24;82.87
23473;BME280;11909;52.516;13.564;2023-02-11T00:43:18;102285.69;;;2.21;83.14
23473;BME280;11909;52.516;13.564;2023-02-11T00:45:47;102287.94;;;2.18;83.26
23473;BME280;11909;52.516;13.564;2023-02-11T00:48:15;102289.81;;;2.32;83.07
23473;BME280;11909;52.516;13.564;2023-02-11T00:50:43;102286.25;;;2.32;82.91
23473;BME280;11909;52.516;13.564;2023-02-11T00:53:11;102297.56;;;2.35;83.08
23473;BME280;11909;52.516;13.564;2023-02-11T00:55:38;102295.69;;;2.36;82.51
23473;BME280;11909;52.516;13.564;2023-02-11T00:58:06;102291.50;;;2.33;82.85
23473;BME280;11909;52.516;13.564;2023-02-11T01:00:34;102284.75;;;2.29;83.21
23473;BME280;11909;52.516;13.564;2023-02-11T01:03:03;102280.44;;;2.35;82.96
23473;BME280;11909;52.516;13.564;2023-02-11T01:05:30;102284.00;;;2.35;82.93
23473;BME280;11909;52.516;13.564;2023-02-11T01:07:58;102270.63;;;2.34;83.19
23473;BME280;11909;52.516;13.564;2023-02-11T01:10:26;102243.38;;;2.35;83.04
23473;BME280;11909;52.516;13.564;2023-02-11T01:12:54;102243.91;;;2.31;83.45
23473;BME280;11909;52.516;13.564;2023-02-11T01:15:22;102232.53;;;2.35;83.18
23473;BME280;11909;52.516;13.564;2023-02-11T01:17:49;102233.56;;;2.34;83.31
23473;BME280;11909;52.516;13.564;2023-02-11T01:20:21;102223.94;;;2.32;83.58
23473;BME280;11909;52.516;13.564;2023-02-11T01:22:49;102222.38;;;2.22;83.99
23473;BME280;11909;52.516;13.564;2023-02-11T01:25:17;102218.41;;;2.25;84.01
23473;BME280;11909;52.516;13.564;2023-02-11T01:27:44;102213.75;;;2.19;84.60
23473;BME280;11909;52.516;13.564;2023-02-11T01:30:13;102221.72;;;2.20;84.79
23473;BME280;11909;52.516;13.564;2023-02-11T01:32:41;102217.97;;;2.21;85.41
23473;BME280;11909;52.516;13.564;2023-02-11T01:35:08;102207.19;;;2.28;85.32
23473;BME280;11909;52.516;13.564;2023-02-11T01:37:37;102188.72;;;2.17;86.41
23473;BME280;11909;52.516;13.564;2023-02-11T01:40:11;102193.94;;;2.18;86.90
23473;BME280;11909;52.516;13.564;2023-02-11T01:42:40;102200.22;;;2.19;86.78
23473;BME280;11909;52.516;13.564;2023-02-11T01:45:45;102216.09;;;2.22;86.72
23473;BME280;11909;52.516;13.564;2023-02-11T01:48:21;102207.88;;;2.15;86.74
23473;BME280;11909;52.516;13.564;2023-02-11T01:50:49;102216.34;;;2.27;85.75
23473;BME280;11909;52.516;13.564;2023-02-11T01:53:20;102200.03;;;2.20;86.19
23473;BME280;11909;52.516;13.564;2023-02-11T01:56:07;102194.25;;;2.23;85.60
23473;BME280;11909;52.516;13.564;2023-02-11T01:58:54;102187.69;;;2.18;86.02
23473;BME280;11909;52.516;13.564;2023-02-11T02:01:24;102190.88;;;2.21;85.94
23473;BME280;11909;52.516;13.564;2023-02-11T02:03:56;102197.50;;;2.19;85.86
23473;BME280;11909;52.516;13.564;2023-02-11T02:06:30;102192.09;;;2.19;86.17
23473;BME280;11909;52.516;13.564;2023-02-11T02:09:04;102204.97;;;2.32;85.46
23473;BME280;11909;52.516;13.564;2023-02-11T02:11:34;102183.84;;;2.27;85.75
23473;BME280;11909;52.516;13.564;2023-02-11T02:14:02;102195.03;;;2.39;85.64
23473;BME280;11909;52.516;13.564;2023-02-11T02:16:33;102195.91;;;2.24;86.14
23473;BME280;11909;52.516;13.564;2023-02-11T02:19:15;102190.38;;;2.33;85.88
23473;BME280;11909;52.516;13.564;2023-02-11T02:22:05;102190.00;;;2.36;86.29
23473;BME280;11909;52.516;13.564;2023-02-11T02:25:14;102189.34;;;2.34;86.83
23473;BME280;11909;52.516;13.564;2023-02-11T02:27:49;102179.34;;;2.49;85.89
23473;BME280;11909;52.516;13.564;2023-02-11T02:30:53;102167.72;;;2.55;85.56
23473;BME280;11909;52.516;13.564;2023-02-11T02:33:44;102167.97;;;2.61;85.37
23473;BME280;11909;52.516;13.564;2023-02-11T02:36:18;102158.81;;;2.62;85.66
23473;BME280;11909;52.516;13.564;2023-02-11T02:38:52;102161.09;;;2.58;86.06
23473;BME280;11909;52.516;13.564;2023-02-11T02:41:23;102154.81;;;2.57;86.02
23473;BME280;11909;52.516;13.564;2023-02-11T02:43:53;102160.50;;;2.63;86.60
23473;BME280;11909;52.516;13.564;2023-02-11T02:46:23;102160.78;;;2.68;86.20
23473;BME280;11909;52.516;13.564;2023-02-11T02:48:54;102148.75;;;2.77;86.25
23473;BME280;11909;52.516;13.564;2023-02-11T02:51:39;102141.53;;;2.84;85.71
23473;BME280;11909;52.516;13.564;2023-02-11T02:54:31;102138.16;;;2.82;86.10
23473;BME280;11909;52.516;13.564;2023-02-11T02:57:09;102133.13;;;2.79;86.11
23473;BME280;11909;52.516;13.564;2023-02-11T02:59:52;102132.41;;;2.92;86.10
23473;BME280;11909;52.516;13.564;2023-02-11T03:02:28;102131.22;;;2.95;86.15
23473;BME280;11909;52.516;13.564;2023-02-11T03:05:03;102141.03;;;2.96;86.40
23473;BME280;11909;52.516;13.564;2023-02-11T03:07:37;102132.03;;;2.95;86.01
23473;BME280;11909;52.516;13.564;2023-02-11T03:10:09;102132.88;;;2.96;86.77
23473;BME280;11909;52.516;13.564;2023-02-11T03:12:41;102131.91;;;3.04;86.50
23473;BME280;11909;52.516;13.564;2023-02-11T03:15:11;102130.81;;;2.98;86.81
23473;BME280;11909;52.516;13.564;2023-02-11T03:17:41;102124.41;;;3.06;86.55
23473;BME280;11909;52.516;13.564;2023-02-11T03:20:14;102124.47;;;3.12;86.43
23473;BME280;11909;52.516;13.564;2023-02-11T03:22:47;102122.19;;;3.16;86.12
23473;BME280;11909;52.516;13.564;2023-02-11T03:25:17;102124.25;;;3.14;86.48
23473;BME280;11909;52.516;13.564;2023-02-11T03:27:51;102108.31;;;3.04;86.96
23473;BME280;11909;52.516;13.564;2023-02-11T03:30:21;102116.06;;;3.07;87.24
23473;BME280;11909;52.516;13.564;2023-02-11T03:32:56;102125.22;;;3.06;86.87
23473;BME280;11909;52.516;13.564;2023-02-11T03:35:32;102112.91;;;3.04;86.62
23473;BME280;11909;52.516;13.564;2023-02-11T03:38:05;102116.91;;;3.08;86.59
23473;BME280;11909;52.516;13.564;2023-02-11T03:40:35;102121.69;;;3.06;86.69
23473;BME280;11909;52.516;13.564;2023-02-11T03:43:07;102125.00;;;3.01;87.46
23473;BME280;11909;52.516;13.564;2023-02-11T03:45:37;102122.75;;;3.05;87.20
23473;BME280;11909;52.516;13.564;2023-02-11T03:48:09;102117.25;;;2.98;87.95
23473;BME280;11909;52.516;13.564;2023-02-11T03:50:40;102114.63;;;3.11;87.20
23473;BME280;11909;52.516;13.564;2023-02-11T03:53:10;102113.97;;;3.03;87.28
23473;BME280;11909;52.516;13.564;2023-02-11T03:55:40;102106.41;;;2.98;87.76
23473;BME280;11909;52.516;13.564;2023-02-11T03:58:09;102108.91;;;2.99;87.19
23473;BME280;11909;52.516;13.564;2023-02-11T04:00:40;102113.31;;;3.00;87.37
23473;BME280;11909;52.516;13.564;2023-02-11T04:03:08;102104.34;;;3.00;87.41
23473;BME280;11909;52.516;13.564;2023-02-11T04:05:37;102107.69;;;3.02;87.64
23473;BME280;11909;52.516;13.564;2023-02-11T04:08:07;102109.28;;;2.96;88.13
23473;BME280;11909;52.516;13.564;2023-02-11T04:10:35;102118.28;;;2.97;88.07
23473;BME280;11909;52.516;13.564;2023-02-11T04:13:02;102119.75;;;2.99;88.53
23473;BME280;11909;52.516;13.564;2023-02-11T04:15:30;102120.06;;;3.11;87.91
23473;BME280;11909;52.516;13.564;2023-02-11T04:17:58;102115.41;;;3.05;88.45
23473;BME280;11909;52.516;13.564;2023-02-11T04:20:25;102105.19;;;3.00;89.01
23473;BME280;11909;52.516;13.564;2023-02-11T04:22:53;102113.16;;;3.09;89.39
23473;BME280;11909;52.516;13.564;2023-02-11T04:25:22;102105.22;;;3.07;89.49
23473;BME280;11909;52.516;13.564;2023-02-11T04:27:51;102097.78;;;3.16;89.90
23473;BME280;11909;52.516;13.564;2023-02-11T04:30:19;102098.88;;;3.22;90.01
23473;BME280;11909;52.516;13.564;2023-02-11T04:32:47;102100.72;;;3.21;90.38
23473;BME280;11909;52.516;13.564;2023-02-11T04:35:14;102095.47;;;3.13;90.70
23473;BME280;11909;52.516;13.564;2023-02-11T04:37:42;102087.81;;;3.23;91.52
23473;BME280;11909;52.516;13.564;2023-02-11T04:40:10;102085.63;;;3.40;91.25
23473;BME280;11909;52.516;13.564;2023-02-11T04:42:39;102077.03;;;3.37;91.59
23473;BME280;11909;52.516;13.564;2023-02-11T04:45:08;102074.59;;;3.49;91.47
23473;BME280;11909;52.516;13.564;2023-02-11T04:47:35;102078.56;;;3.46;92.06
23473;BME280;11909;52.516;13.564;2023-02-11T04:50:04;102071.53;;;3.58;92.01
23473;BME280;11909;52.516;13.564;2023-02-11T04:52:31;102077.22;;;3.70;92.05
23473;BME280;11909;52.516;13.564;2023-02-11T04:54:59;102075.50;;;3.63;92.43
23473;BME280;11909;52.516;13.564;2023-02-11T04:57:27;102060.53;;;3.73;92.98
23473;BME280;11909;52.516;13.564;2023-02-11T04:59:56;102051.53;;;3.66;93.42
23473;BME280;11909;52.516;13.564;2023-02-11T05:02:24;102049.88;;;3.72;93.47
23473;BME280;11909;52.516;13.564;2023-02-11T05:04:51;102051.97;;;3.70;93.91
23473;BME280;11909;52.516;13.564;2023-02-11T05:07:19;102047.56;;;3.69;94.73
23473;BME280;11909;52.516;13.564;2023-02-11T05:09:47;102053.19;;;3.67;95.14
23473;BME280;11909;52.516;13.564;2023-02-11T05:12:14;102031.91;;;3.71;95.34
23473;BME280;11909;52.516;13.564;2023-02-11T05:14:42;102028.53;;;3.69;95.68
23473;BME280;11909;52.516;13.564;2023-02-11T05:17:11;102015.19;;;3.67;95.67
23473;BME280;11909;52.516;13.564;2023-02-11T05:19:40;102002.44;;;3.68;95.91
23473;BME280;11909;52.516;13.564;2023-02-11T05:22:08;102005.56;;;3.58;96.56
23473;BME280;11909;52.516;13.564;2023-02-11T05:24:35;102003.25;;;3.62;96.66
23473;BME280;11909;52.516;13.564;2023-02-11T05:27:03;102004.78;;;3.71;96.41
23473;BME280;11909;52.516;13.564;2023-02-11T05:29:31;102001.19;;;3.70;96.52
23473;BME280;11909;52.516;13.564;2023-02-11T05:31:58;101998.50;;;3.70;96.67
23473;BME280;11909;52.516;13.564;2023-02-11T05:34:27;101991.38;;;3.69;96.97
23473;BME280;11909;52.516;13.564;2023-02-11T05:36:55;101988.66;;;3.69;97.36
23473;BME280;11909;52.516;13.564;2023-02-11T05:39:23;101994.28;;;3.68;97.58
23473;BME280;11909;52.516;13.564;2023-02-11T05:41:50;101995.59;;;3.72;97.14
23473;BME280;11909;52.516;13.564;2023-02-11T05:44:18;101999.75;;;3.75;97.16
23473;BME280;11909;52.516;13.564;2023-02-11T05:46:46;101995.56;;;3.65;97.60
23473;BME280;11909;52.516;13.564;2023-02-11T05:49:15;101992.88;;;3.72;97.59
23473;BME280;11909;52.516;13.564;2023-02-11T05:51:44;101985.97;;;3.69;97.64
23473;BME280;11909;52.516;13.564;2023-02-11T05:54:12;101990.97;;;3.72;97.99
23473;BME280;11909;52.516;13.564;2023-02-11T05:56:40;101974.28;;;3.76;98.19
23473;BME280;11909;52.516;13.564;2023-02-11T05:59:12;101986.59;;;3.71;98.47
23473;BME280;11909;52.516;13.564;2023-02-11T06:01:40;101992.66;;;3.73;98.97
23473;BME280;11909;52.516;13.564;2023-02-11T06:04:08;101989.75;;;3.75;99.35
23473;BME280;11909;52.516;13.564;2023-02-11T06:06:36;101989.13;;;3.73;99.57
23473;BME280;11909;52.516;13.564;2023-02-11T06:09:05;101998.97;;;3.81;99.47
23473;BME280;11909;52.516;13.564;2023-02-11T06:11:32;101998.97;;;3.81;99.84
23473;BME280;11909;52.516;13.564;2023-02-11T06:14:00;102005.22;;;3.81;100.00
23473;BME280;11909;52.516;13.564;2023-02-11T06:16:28;101996.84;;;3.76;100.00
23473;BME280;11909;52.516;13.564;2023-02-11T06:18:56;101988.50;;;3.84;100.00
23473;BME280;11909;52.516;13.564;2023-02-11T06:21:24;101992.47;;;3.88;100.00
23473;BME280;11909;52.516;13.564;2023-02-11T06:24:10;102000.44;;;3.90;100.00
23473;BME280;11909;52.516;13.564;2023-02-11T06:26:38;101991.66;;;3.88;100.00
23473;BME280;11909;52.516;13.564;2023-02-11T06:29:06;101989.16;;;3.93;100.00
23473;BME280;11909;52.516;13.564;2023-02-11T06:31:36;101999.59;;;3.96;100.00
23473;BME280;11909;52.516;13.564;2023-02-11T06:34:04;101993.75;;;3.99;100.00
23473;BME280;11909;52.516;13.564;2023-02-11T06:36:32;102001.28;;;3.97;100.00
23473;BME280;11909;52.516;13.564;2023-02-11T06:38:59;101986.25;;;3.95;100.00
23473;BME280;11909;52.516;13.564;2023-02-11T06:41:28;101975.56;;;3.93;100.00
23473;BME280;11909;52.516;13.564;2023-02-11T06:43:56;101985.44;;;4.08;100.00
23473;BME280;11909;52.516;13.564;2023-02-11T06:46:24;101970.78;;;4.02;100.00
23473;BME280;11909;52.516;13.564;2023-02-11T06:48:52;101978.72;;;4.04;100.00
23473;BME280;11909;52.516;13.564;2023-02-11T06:51:19;101979.78;;;4.09;100.00
23473;BME280;11909;52.516;13.564;2023-02-11T06:53:47;101979.13;;;4.00;100.00
23473;BME280;11909;52.516;13.564;2023-02-11T06:56:18;101981.06;;;4.07;100.00
23473;BME280;11909;52.516;13.564;2023-02-11T06:58:51;101990.47;;;4.11;100.00
23473;BME280;11909;52.516;13.564;2023-02-11T07:01:20;101966.19;;;4.09;100.00
23473;BME280;11909;52.516;13.564;2023-02-11T07:03:48;101977.09;;;4.16;100.00
23473;BME280;11909;52.516;13.564;2023-02-11T07:06:19;101977.72;;;4.18;100.00
23473;BME280;11909;52.516;13.564;2023-02-11T07:08:48;101985.84;;;4.11;100.00
23473;BME280;11909;52.516;13.564;2023-02-11T07:11:17;101974.38;;;4.16;100.00
23473;BME280;11909;52.516;13.564;2023-02-11T07:13:47;101962.25;;;4.19;100.00
23473;BME280;11909;52.516;13.564;2023-02-11T07:16:16;101971.03;;;4.21;100.00
23473;BME280;11909;52.516;13.564;2023-02-11T07:18:46;101969.13;;;4.21;100.00
23473;BME280;11909;52.516;13.564;2023-02-11T07:21:16;101969.13;;;4.21;100.00
23473;BME280;11909;52.516;13.564;2023-02-11T07:23:44;101970.63;;;4.24;100.00
23473;BME280;11909;52.516;13.564;2023-02-11T07:26:14;101961.00;;;4.21;100.00
23473;BME280;11909;52.516;13.564;2023-02-11T07:28:43;101961.84;;;4.28;100.00
23473;BME280;11909;52.516;13.564;2023-02-11T07:31:14;101966.22;;;4.16;100.00
23473;BME280;11909;52.516;13.564;2023-02-11T07:33:43;101948.03;;;4.30;100.00
23473;BME280;11909;52.516;13.564;2023-02-11T07:36:12;101958.69;;;4.25;100.00
23473;BME280;11909;52.516;13.564;2023-02-11T07:38:41;101950.53;;;4.25;100.00
23473;BME280;11909;52.516;13.564;2023-02-11T07:41:10;101944.50;;;4.23;100.00
23473;BME280;11909;52.516;13.564;2023-02-11T07:43:39;101942.59;;;4.23;100.00
23473;BME280;11909;52.516;13.564;2023-02-11T07:46:09;101957.47;;;4.27;100.00
23473;BME280;11909;52.516;13.564;2023-02-11T07:48:38;101951.38;;;4.25;100.00
23473;BME280;11909;52.516;13.564;2023-02-11T07:51:08;101962.66;;;4.29;100.00
23473;BME280;11909;52.516;13.564;2023-02-11T07:53:36;101950.75;;;4.30;100.00
23473;BME280;11909;52.516;13.564;2023-02-11T07:56:04;101956.81;;;4.25;100.00
23473;BME280;11909;52.516;13.564;2023-02-11T07:58:33;101964.97;;;4.25;100.00
23473;BME280;11909;52.516;13.564;2023-02-11T08:01:01;101959.09;;;4.35;100.00
23473;BME280;11909;52.516;13.564;2023-02-11T08:03:30;101943.66;;;4.29;100.00
23473;BME280;11909;52.516;13.564;2023-02-11T08:06:02;101944.69;;;4.41;100.00
23473;BME280;11909;52.516;13.564;2023-02-11T08:08:30;101964.78;;;4.40;100.00
23473;BME280;11909;52.516;13.564;2023-02-11T08:10:57;101967.91;;;4.44;100.00
23473;BME280;11909;52.516;13.564;2023-02-11T08:13:25;101978.16;;;4.42;100.00
23473;BME280;11909;52.516;13.564;2023-02-11T08:15:56;101981.91;;;4.48;100.00
23473;BME280;11909;52.516;13.564;2023-02-11T08:18:23;101994.47;;;4.49;100.00
23473;BME280;11909;52.516;13.564;2023-02-11T08:20:51;101981.94;;;4.54;100.00
23473;BME280;11909;52.516;13.564;2023-02-11T08:23:20;101992.38;;;4.51;100.00
23473;BME280;11909;52.516;13.564;2023-02-11T08:25:48;101984.84;;;4.59;100.00
23473;BME280;11909;52.516;13.564;2023-02-11T08:28:15;101987.34;;;4.61;100.00
23473;BME280;11909;52.516;13.564;2023-02-11T08:30:43;101988.00;;;4.63;100.00
23473;BME280;11909;52.516;13.564;2023-02-11T08:33:11;101981.06;;;4.61;100.00
23473;BME280;11909;52.516;13.564;2023-02-11T08:35:38;101988.81;;;4.64;100.00
23473;BME280;11909;52.516;13.564;2023-02-11T08:38:06;101997.81;;;4.64;100.00
23473;BME280;11909;52.516;13.564;2023-02-11T08:40:36;102001.16;;;4.73;100.00
23473;BME280;11909;52.516;13.564;2023-02-11T08:43:03;101996.13;;;4.77;100.00
23473;BME280;11909;52.516;13.564;2023-02-11T08:45:33;101998.03;;;4.76;100.00
23473;BME280;11909;52.516;13.564;2023-02-11T08:48:01;101995.28;;;4.83;100.00
23473;BME280;11909;52.516;13.564;2023-02-11T08:50:28;101977.50;;;4.80;100.00
23473;BME280;11909;52.516;13.564;2023-02-11T08:52:57;101969.75;;;4.84;100.00
23473;BME280;11909;52.516;13.564;2023-02-11T08:55:25;101974.34;;;4.90;100.00
23473;BME280;11909;52.516;13.564;2023-02-11T08:57:54;101965.59;;;4.81;100.00
23473;BME280;11909;52.516;13.564;2023-02-11T09:00:22;101959.09;;;4.89;100.00
23473;BME280;11909;52.516;13.564;2023-02-11T09:02:49;101967.03;;;4.91;100.00
23473;BME280;11909;52.516;13.564;2023-02-11T09:05:17;101970.78;;;4.90;100.00
23473;BME280;11909;52.516;13.564;2023-02-11T09:07:45;101963.69;;;4.88;100.00
23473;BME280;11909;52.516;13.564;2023-02-11T09:10:13;101971.84;;;4.88;100.00
23473;BME280;11909;52.516;13.564;2023-02-11T09:12:40;101978.53;;;4.93;100.00
23473;BME280;11909;52.516;13.564;2023-02-11T09:15:10;101984.38;;;4.96;100.00
23473;BME280;11909;52.516;13.564;2023-02-11T09:17:37;101969.94;;;4.96;100.00
23473;BME280;11909;52.516;13.564;2023-02-11T09:20:06;101959.88;;;5.03;100.00
23473;BME280;11909;52.516;13.564;2023-02-11T09:22:36;101967.19;;;5.02;100.00
23473;BME280;11909;52.516;13.564;2023-02-11T09:25:04;101983.34;;;5.04;100.00
23473;BME280;11909;52.516;13.564;2023-02-11T09:27:32;101982.47;;;5.03;100.00
23473;BME280;11909;52.516;13.564;2023-02-11T09:29:59;101995.03;;;5.05;100.00
23473;BME280;11909;52.516;13.564;2023-02-11T09:32:29;101978.31;;;5.01;100.00
23473;BME280;11909;52.516;13.564;2023-02-11T09:34:56;101993.16;;;4.98;100.00
23473;BME280;11909;52.516;13.564;2023-02-11T09:37:24;101993.34;;;5.03;100.00
23473;BME280;11909;52.516;13.564;2023-02-11T09:39:52;101984.78;;;5.07;100.00
23473;BME280;11909;52.516;13.564;2023-02-11T09:42:36;101999.44;;;5.06;100.00
23473;BME280;11909;52.516;13.564;2023-02-11T09:45:12;102007.81;;;5.11;100.00
23473;BME280;11909;52.516;13.564;2023-02-11T09:47:48;101997.53;;;5.13;100.00
23473;BME280;11909;52.516;13.564;2023-02-11T09:50:21;102006.97;;;5.10;100.00
23473;BME280;11909;52.516;13.564;2023-02-11T09:52:54;101997.13;;;5.09;100.00
23473;BME280;11909;52.516;13.564;2023-02-11T09:55:26;102002.13;;;5.12;100.00
23473;BME280;11909;52.516;13.564;2023-02-11T09:57:55;102018.25;;;5.21;100.00
23473;BME280;11909;52.516;13.564;2023-02-11T10:00:26;102021.00;;;5.14;100.00
23473;BME280;11909;52.516;13.564;2023-02-11T10:03:08;102016.34;;;5.21;100.00
23473;BME280;11909;52.516;13.564;2023-02-11T10:05:55;102007.78;;;5.17;100.00
23473;BME280;11909;52.516;13.564;2023-02-11T10:08:38;102025.75;;;5.32;100.00
23473;BME280;11909;52.516;13.564;2023-02-11T10:11:17;102027.44;;;5.33;100.00
23473;BME280;11909;52.516;13.564;2023-02-11T10:14:02;102025.75;;;5.25;100.00
23473;BME280;11909;52.516;13.564;2023-02-11T10:16:44;102031.81;;;5.27;100.00
23473;BME280;11909;52.516;13.564;2023-02-11T10:19:26;102028.47;;;5.32;100.00
23473;BME280;11909;52.516;13.564;2023-02-11T10:22:06;102040.41;;;5.31;100.00
23473;BME280;11909;52.516;13.564;2023-02-11T10:24:36;102039.34;;;5.39;100.00
23473;BME280;11909;52.516;13.564;2023-02-11T10:27:14;102040.19;;;5.39;100.00
23473;BME280;11909;52.516;13.564;2023-02-11T10:29:47;102044.38;;;5.42;100.00
23473;BME280;11909;52.516;13.564;2023-02-11T10:32:25;102028.22;;;5.40;100.00
23473;BME280;11909;52.516;13.564;2023-02-11T10:35:00;102026.19;;;5.36;100.00
23473;BME280;11909;52.516;13.564;2023-02-11T10:37:28;102030.78;;;5.35;100.00
23473;BME280;11909;52.516;13.564;2023-02-11T10:39:56;102031.59;;;5.42;100.00
23473;BME280;11909;52.516;13.564;2023-02-11T10:42:24;102021.97;;;5.40;100.00
23473;BME280;11909;52.516;13.564;2023-02-11T10:44:57;102017.78;;;5.37;100.00
23473;BME280;11909;52.516;13.564;2023-02-11T10:47:29;101991.78;;;5.41;100.00
23473;BME280;11909;52.516;13.564;2023-02-11T10:50:17;102002.06;;;5.39;100.00
23473;BME280;11909;52.516;13.564;2023-02-11T10:52:45;102000.38;;;5.38;100.00
23473;BME280;11909;52.516;13.564;2023-02-11T10:55:15;101998.53;;;5.39;100.00
23473;BME280;11909;52.516;13.564;2023-02-11T10:57:50;102006.66;;;5.45;100.00
23473;BME280;11909;52.516;13.564;2023-02-11T11:00:30;102010.22;;;5.39;100.00
23473;BME280;11909;52.516;13.564;2023-02-11T11:03:00;101999.94;;;5.48;100.00
23473;BME280;11909;52.516;13.564;2023-02-11T11:05:31;101992.63;;;5.42;100.00
23473;BME280;11909;52.516;13.564;2023-02-11T11:08:03;101988.44;;;5.46;100.00
23473;BME280;11909;52.516;13.564;2023-02-11T11:10:35;101987.19;;;5.42;100.00
23473;BME280;11909;52.516;13.564;2023-02-11T11:13:26;101994.94;;;5.38;100.00
23473;BME280;11909;52.516;13.564;2023-02-11T11:16:22;101981.75;;;5.42;100.00
23473;BME280;11909;52.516;13.564;2023-02-11T11:18:51;101991.16;;;5.39;100.00
23473;BME280;11909;52.516;13.564;2023-02-11T11:21:25;101987.22;;;5.35;100.00
23473;BME280;11909;52.516;13.564;2023-02-11T11:23:58;101982.97;;;5.46;100.00
23473;BME280;11909;52.516;13.564;2023-02-11T11:26:27;101973.78;;;5.40;100.00
23473;BME280;11909;52.516;13.564;2023-02-11T11:29:08;101977.97;;;5.43;100.00
23473;BME280;11909;52.516;13.564;2023-02-11T11:31:45;101981.06;;;5.53;100.00
23473;BME280;11909;52.516;13.564;2023-02-11T11:34:21;101981.72;;;5.55;100.00
23473;BME280;11909;52.516;13.564;2023-02-11T11:36:50;101989.91;;;5.42;100.00
23473;BME280;11909;52.516;13.564;2023-02-11T11:39:21;102003.50;;;5.49;100.00
23473;BME280;11909;52.516;13.564;2023-02-11T11:41:54;101997.84;;;5.50;100.00
23473;BME280;11909;52.516;13.564;2023-02-11T11:44:31;101992.34;;;5.64;100.00
23473;BME280;11909;52.516;13.564;2023-02-11T11:47:19;101982.06;;;5.66;100.00
23473;BME280;11909;52.516;13.564;2023-02-11T11:49:58;101983.13;;;5.65;100.00
23473;BME280;11909;52.516;13.564;2023-02-11T11:52:40;102000.78;;;5.55;100.00
23473;BME280;11909;52.516;13.564;2023-02-11T11:55:15;101987.31;;;5.67;100.00
23473;BME280;11909;52.516;13.564;2023-02-11T11:57:44;101994.00;;;5.65;100.00
23473;BME280;11909;52.516;13.564;2023-02-11T12:00:18;101984.16;;;5.70;100.00
23473;BME280;11909;52.516;13.564;2023-02-11T12:03:08;101976.19;;;5.69;100.00
23473;BME280;11909;52.516;13.564;2023-02-11T12:05:47;101983.28;;;5.70;100.00
23473;BME280;11909;52.516;13.564;2023-02-11T12:08:27;101992.16;;;5.65;100.00
23473;BME280;11909;52.516;13.564;2023-02-11T12:11:04;101992.94;;;5.72;100.00
23473;BME280;11909;52.516;13.564;2023-02-11T12:13:47;101988.56;;;5.65;100.00
23473;BME280;11909;52.516;13.564;2023-02-11T12:16:27;101988.94;;;5.75;100.00
23473;BME280;11909;52.516;13.564;2023-02-11T12:19:22;101986.16;;;5.82;100.00
23473;BME280;11909;52.516;13.564;2023-02-11T12:22:02;101981.41;;;5.77;100.00
23473;BME280;11909;52.516;13.564;2023-02-11T12:24:44;101980.75;;;5.75;100.00
23473;BME280;11909;52.516;13.564;2023-02-11T12:27:18;101997.03;;;5.88;100.00
23473;BME280;11909;52.516;13.564;2023-02-11T12:30:00;102003.34;;;5.89;100.00
23473;BME280;11909;52.516;13.564;2023-02-11T12:32:36;102000.84;;;5.81;100.00
23473;BME280;11909;52.516;13.564;2023-02-11T12:38:10;101995.16;;;5.89;100.00
23473;BME280;11909;52.516;13.564;2023-02-11T12:40:49;101985.78;;;5.78;100.00
23473;BME280;11909;52.516;13.564;2023-02-11T12:43:22;101994.50;;;5.94;100.00
23473;BME280;11909;52.516;13.564;2023-02-11T12:46:01;101991.16;;;5.92;100.00
23473;BME280;11909;52.516;13.564;2023-02-11T12:48:47;101986.34;;;5.87;100.00
23473;BME280;11909;52.516;13.564;2023-02-11T12:51:31;101987.19;;;5.87;100.00
23473;BME280;11909;52.516;13.564;2023-02-11T12:54:18;101990.94;;;5.93;100.00
23473;BME280;11909;52.516;13.564;2023-02-11T12:56:51;101997.22;;;5.94;100.00
23473;BME280;11909;52.516;13.564;2023-02-11T12:59:32;102001.59;;;5.95;100.00
23473;BME280;11909;52.516;13.564;2023-02-11T13:02:09;102008.78;;;5.89;100.00
23473;BME280;11909;52.516;13.564;2023-02-11T13:04:40;102011.28;;;5.91;100.00
23473;BME280;11909;52.516;13.564;2023-02-11T13:07:13;102006.44;;;5.93;100.00
23473;BME280;11909;52.516;13.564;2023-02-11T13:09:45;102013.13;;;5.97;100.00
23473;BME280;11909;52.516;13.564;2023-02-11T13:12:18;102023.81;;;5.98;100.00